Strona główna
METAR-TAF:

METAR-TAF

Lotnisko :

Port lotniczy Kerry

Killarney, Irlandia

Szerokość geograficzna: 52-10-51N, Długość geograficzna: 9-31-26W, wysokość: 34 m

Aktualna obserwacja pogody

Raport powstał 18 minut temu, godzina 06:30 UTC
Wiatr 2 kt z kierunków zmiennych
Temperatura 13°C
Wilgotność 82%
Ciśnienie 1024 hPa
Widzialność 10 km lub więcej
Brak chmur poniżej 1500 m i brak chmur cumulonimbus

METAR: EIKY 010630Z VRB02KT CAVOK 13/10 Q1024

czas: 07:48 (06:48 UTC)

Prognoza

Raport powstał 1 godzina i 48 minut temu, godzina 05:00 UTC
Prognoza ważna od 01 godzina 06 UTC do 01 godzina 15 UTC
Wiatr 5 kt od wschodnio-południowy wschód
Widzialność 10 km lub więcej
Brak chmur poniżej 1500 m i brak chmur cumulonimbus

TAF: EIKY 010500Z 0106/0115 11005KT CAVOK

Obserwacja i prognoza pogody dla ponad 4000 lotnisk (raport METAR i TAF).

Dostępne stacje oznaczono żółtymi i czerwonymi punktami na mapie.

Najedź kursorem aby zobaczyć nazwę stacji.

Kliknij aby zobaczyć obserwacje i prognozy pogody.

Aby zmienić mapę: kliknij na zielony przycisk z czarnym krzyżykiem, aby powiększyć; na zielony przycisk z myślnikiem, aby pomniejszyć; na zielone strzałki, aby przejść do map sąsiednich.


METAR-TAF: